sensor_id;sensor_type;location;lat;lon;timestamp;pressure;altitude;pressure_sealevel;temperature;humidity
81865;BME280;71313;43.514;1.500;2023-07-28T00:00:31;99611.13;;;28.55;45.07
81865;BME280;71313;43.514;1.500;2023-07-28T00:02:56;99623.03;;;28.55;44.95
81865;BME280;71313;43.514;1.500;2023-07-28T00:05:22;99630.22;;;28.56;45.22
81865;BME280;71313;43.514;1.500;2023-07-28T00:07:47;99632.38;;;28.54;45.42
81865;BME280;71313;43.514;1.500;2023-07-28T00:10:13;99628.53;;;28.55;45.66
81865;BME280;71313;43.514;1.500;2023-07-28T00:12:38;99632.38;;;28.54;45.44
81865;BME280;71313;43.514;1.500;2023-07-28T00:15:04;99626.00;;;28.54;45.49
81865;BME280;71313;43.514;1.500;2023-07-28T00:17:29;99632.16;;;28.56;45.50
81865;BME280;71313;43.514;1.500;2023-07-28T00:19:54;99623.47;;;28.52;44.88
81865;BME280;71313;43.514;1.500;2023-07-28T00:22:20;99625.78;;;28.55;45.48
81865;BME280;71313;43.514;1.500;2023-07-28T00:24:45;99640.66;;;28.54;45.47
81865;BME280;71313;43.514;1.500;2023-07-28T00:27:11;99640.88;;;28.53;44.78
81865;BME280;71313;43.514;1.500;2023-07-28T00:29:40;99650.63;;;28.55;45.32
81865;BME280;71313;43.514;1.500;2023-07-28T00:32:05;99647.88;;;28.55;45.09
81865;BME280;71313;43.514;1.500;2023-07-28T00:34:31;99643.41;;;28.54;44.96
81865;BME280;71313;43.514;1.500;2023-07-28T00:36:56;99660.81;;;28.55;44.91
81865;BME280;71313;43.514;1.500;2023-07-28T00:39:22;99655.31;;;28.55;45.32
81865;BME280;71313;43.514;1.500;2023-07-28T00:41:48;99658.28;;;28.53;45.37
81865;BME280;71313;43.514;1.500;2023-07-28T00:44:13;99669.34;;;28.53;44.83
81865;BME280;71313;43.514;1.500;2023-07-28T00:46:40;99675.47;;;28.55;45.04
81865;BME280;71313;43.514;1.500;2023-07-28T00:49:05;99670.41;;;28.52;45.15
81865;BME280;71313;43.514;1.500;2023-07-28T00:51:31;99668.50;;;28.53;45.44
81865;BME280;71313;43.514;1.500;2023-07-28T00:53:57;99658.28;;;28.53;44.75
81865;BME280;71313;43.514;1.500;2023-07-28T00:56:24;99668.25;;;28.54;45.28
81865;BME280;71313;43.514;1.500;2023-07-28T00:58:50;99675.47;;;28.55;45.00
81865;BME280;71313;43.514;1.500;2023-07-28T01:01:16;99666.34;;;28.55;45.14
81865;BME280;71313;43.514;1.500;2023-07-28T01:03:42;99656.59;;;28.52;44.97
81865;BME280;71313;43.514;1.500;2023-07-28T01:06:20;99647.25;;;28.53;45.39
81865;BME280;71313;43.514;1.500;2023-07-28T01:11:16;99630.69;;;28.53;45.63
81865;BME280;71313;43.514;1.500;2023-07-28T01:13:42;99630.69;;;28.53;44.93
81865;BME280;71313;43.514;1.500;2023-07-28T01:16:08;99625.84;;;28.49;44.98
81865;BME280;71313;43.514;1.500;2023-07-28T01:18:33;99637.06;;;28.54;44.67
81865;BME280;71313;43.514;1.500;2023-07-28T01:21:01;99624.31;;;28.53;44.84
81865;BME280;71313;43.514;1.500;2023-07-28T01:23:43;99633.44;;;28.53;45.14
81865;BME280;71313;43.514;1.500;2023-07-28T01:26:11;99637.91;;;28.54;45.06
81865;BME280;71313;43.514;1.500;2023-07-28T01:28:39;99632.84;;;28.51;45.64
81865;BME280;71313;43.514;1.500;2023-07-28T01:31:06;99637.06;;;28.54;45.33
81865;BME280;71313;43.514;1.500;2023-07-28T01:33:32;99643.66;;;28.53;45.15
81865;BME280;71313;43.514;1.500;2023-07-28T01:35:58;99654.69;;;28.53;45.01
81865;BME280;71313;43.514;1.500;2023-07-28T01:38:25;99649.41;;;28.51;45.21
81865;BME280;71313;43.514;1.500;2023-07-28T01:40:50;99649.41;;;28.51;44.66
81865;BME280;71313;43.514;1.500;2023-07-28T01:43:16;99640.50;;;28.49;45.16
81865;BME280;71313;43.514;1.500;2023-07-28T01:45:41;99647.72;;;28.50;44.80
81865;BME280;71313;43.514;1.500;2023-07-28T01:48:07;99646.63;;;28.51;45.27
81865;BME280;71313;43.514;1.500;2023-07-28T01:50:34;99631.16;;;28.50;44.87
81865;BME280;71313;43.514;1.500;2023-07-28T01:53:00;99625.63;;;28.50;44.98
81865;BME280;71313;43.514;1.500;2023-07-28T01:55:26;99619.03;;;28.51;44.83
81865;BME280;71313;43.514;1.500;2023-07-28T01:57:59;99610.13;;;28.49;45.44
81865;BME280;71313;43.514;1.500;2023-07-28T02:00:25;99616.28;;;28.51;45.17
81865;BME280;71313;43.514;1.500;2023-07-28T02:02:51;99610.75;;;28.51;45.16
81865;BME280;71313;43.514;1.500;2023-07-28T02:05:17;99622.00;;;28.50;45.03
81865;BME280;71313;43.514;1.500;2023-07-28T02:07:43;99616.72;;;28.48;45.06
81865;BME280;71313;43.514;1.500;2023-07-28T02:10:09;99613.72;;;28.50;44.64
81865;BME280;71313;43.514;1.500;2023-07-28T02:12:36;99613.72;;;28.50;44.67
81865;BME280;71313;43.514;1.500;2023-07-28T02:15:01;99616.72;;;28.48;44.70
81865;BME280;71313;43.514;1.500;2023-07-28T02:17:27;99612.03;;;28.49;44.60
81865;BME280;71313;43.514;1.500;2023-07-28T02:19:52;99608.44;;;28.48;45.06
81865;BME280;71313;43.514;1.500;2023-07-28T02:22:17;99600.63;;;28.45;44.79
81865;BME280;71313;43.514;1.500;2023-07-28T02:24:43;99610.13;;;28.49;44.67
81865;BME280;71313;43.514;1.500;2023-07-28T02:27:08;99606.97;;;28.46;44.34
81865;BME280;71313;43.514;1.500;2023-07-28T02:29:34;99613.34;;;28.46;44.65
81865;BME280;71313;43.514;1.500;2023-07-28T02:31:59;99606.75;;;28.47;44.90
81865;BME280;71313;43.514;1.500;2023-07-28T02:34:24;99605.06;;;28.46;44.63
81865;BME280;71313;43.514;1.500;2023-07-28T02:36:50;99601.22;;;28.47;45.07
81865;BME280;71313;43.514;1.500;2023-07-28T02:39:15;99595.94;;;28.46;45.03
81865;BME280;71313;43.514;1.500;2023-07-28T02:41:40;99592.09;;;28.47;45.16
81865;BME280;71313;43.514;1.500;2023-07-28T02:44:06;99590.19;;;28.47;44.65
81865;BME280;71313;43.514;1.500;2023-07-28T02:46:31;99590.19;;;28.47;44.28
81865;BME280;71313;43.514;1.500;2023-07-28T02:48:57;99597.63;;;28.47;44.40
81865;BME280;71313;43.514;1.500;2023-07-28T02:51:22;99587.66;;;28.46;45.04
81865;BME280;71313;43.514;1.500;2023-07-28T02:53:47;99598.47;;;28.47;44.93
81865;BME280;71313;43.514;1.500;2023-07-28T02:56:13;99590.66;;;28.44;44.89
81865;BME280;71313;43.514;1.500;2023-07-28T02:58:38;99587.88;;;28.44;44.83
81865;BME280;71313;43.514;1.500;2023-07-28T03:01:03;99592.09;;;28.47;44.68
81865;BME280;71313;43.514;1.500;2023-07-28T03:03:29;99594.25;;;28.44;44.78
81865;BME280;71313;43.514;1.500;2023-07-28T03:05:55;99586.81;;;28.45;44.56
81865;BME280;71313;43.514;1.500;2023-07-28T03:08:20;99595.09;;;28.45;44.47
81865;BME280;71313;43.514;1.500;2023-07-28T03:10:46;99595.94;;;28.46;44.62
81865;BME280;71313;43.514;1.500;2023-07-28T03:13:11;99585.75;;;28.46;44.79
81865;BME280;71313;43.514;1.500;2023-07-28T03:15:36;99575.16;;;28.43;44.94
81865;BME280;71313;43.514;1.500;2023-07-28T03:18:02;99563.28;;;28.42;45.06
81865;BME280;71313;43.514;1.500;2023-07-28T03:20:27;99569.63;;;28.43;44.35
81865;BME280;71313;43.514;1.500;2023-07-28T03:22:53;99575.16;;;28.43;44.82
81865;BME280;71313;43.514;1.500;2023-07-28T03:25:20;99571.31;;;28.44;45.22
81865;BME280;71313;43.514;1.500;2023-07-28T03:27:45;99575.16;;;28.43;44.69
81865;BME280;71313;43.514;1.500;2023-07-28T03:30:11;99571.31;;;28.44;44.67
81865;BME280;71313;43.514;1.500;2023-07-28T03:32:36;99562.44;;;28.42;44.83
81865;BME280;71313;43.514;1.500;2023-07-28T03:35:02;99548.63;;;28.42;44.87
81865;BME280;71313;43.514;1.500;2023-07-28T03:37:33;99554.78;;;28.44;44.43
81865;BME280;71313;43.514;1.500;2023-07-28T03:39:58;99561.59;;;28.41;44.53
81865;BME280;71313;43.514;1.500;2023-07-28T03:42:24;99561.59;;;28.41;44.46
81865;BME280;71313;43.514;1.500;2023-07-28T03:44:50;99562.44;;;28.42;44.42
81865;BME280;71313;43.514;1.500;2023-07-28T03:47:15;99565.81;;;28.44;44.44
81865;BME280;71313;43.514;1.500;2023-07-28T03:49:41;99556.91;;;28.42;44.35
81865;BME280;71313;43.514;1.500;2023-07-28T03:52:06;99565.19;;;28.42;44.71
81865;BME280;71313;43.514;1.500;2023-07-28T03:54:32;99577.31;;;28.41;44.48
81865;BME280;71313;43.514;1.500;2023-07-28T03:56:57;99570.56;;;28.37;44.57
81865;BME280;71313;43.514;1.500;2023-07-28T03:59:22;99585.34;;;28.42;43.89
81865;BME280;71313;43.514;1.500;2023-07-28T04:01:48;99579.44;;;28.39;44.65
81865;BME280;71313;43.514;1.500;2023-07-28T04:04:13;99581.38;;;28.38;44.29
81865;BME280;71313;43.514;1.500;2023-07-28T04:06:43;99579.00;;;28.42;44.58
81865;BME280;71313;43.514;1.500;2023-07-28T04:09:11;99579.00;;;28.42;44.79
81865;BME280;71313;43.514;1.500;2023-07-28T04:11:37;99578.16;;;28.41;44.40
81865;BME280;71313;43.514;1.500;2023-07-28T04:14:02;99579.22;;;28.40;44.23
81865;BME280;71313;43.514;1.500;2023-07-28T04:16:27;99579.44;;;28.39;44.02
81865;BME280;71313;43.514;1.500;2023-07-28T04:18:53;99582.81;;;28.41;44.02
81865;BME280;71313;43.514;1.500;2023-07-28T04:21:18;99579.22;;;28.40;44.56
81865;BME280;71313;43.514;1.500;2023-07-28T04:23:44;99579.44;;;28.39;44.19
81865;BME280;71313;43.514;1.500;2023-07-28T04:26:09;99576.69;;;28.39;44.46
81865;BME280;71313;43.514;1.500;2023-07-28T04:28:35;99580.28;;;28.39;44.93
81865;BME280;71313;43.514;1.500;2023-07-28T04:31:00;99575.63;;;28.40;44.30
81865;BME280;71313;43.514;1.500;2023-07-28T04:33:25;99568.41;;;28.39;44.58
81865;BME280;71313;43.514;1.500;2023-07-28T04:35:51;99566.72;;;28.38;44.60
81865;BME280;71313;43.514;1.500;2023-07-28T04:38:16;99568.88;;;28.36;44.60
81865;BME280;71313;43.514;1.500;2023-07-28T04:40:43;99569.47;;;28.38;44.45
81865;BME280;71313;43.514;1.500;2023-07-28T04:43:09;99575.84;;;28.38;44.47
81865;BME280;71313;43.514;1.500;2023-07-28T04:45:34;99567.78;;;28.37;44.38
81865;BME280;71313;43.514;1.500;2023-07-28T04:47:59;99583.28;;;28.38;44.23
81865;BME280;71313;43.514;1.500;2023-07-28T04:50:25;99581.59;;;28.37;44.63
81865;BME280;71313;43.514;1.500;2023-07-28T04:52:50;99590.34;;;28.34;44.46
81865;BME280;71313;43.514;1.500;2023-07-28T04:55:16;99608.56;;;28.35;44.69
81865;BME280;71313;43.514;1.500;2023-07-28T04:57:41;99598.59;;;28.34;44.19
81865;BME280;71313;43.514;1.500;2023-07-28T05:00:07;99583.75;;;28.35;43.99
81865;BME280;71313;43.514;1.500;2023-07-28T05:02:33;99576.53;;;28.34;44.34
81865;BME280;71313;43.514;1.500;2023-07-28T05:04:59;99577.38;;;28.34;44.26
81865;BME280;71313;43.514;1.500;2023-07-28T05:07:24;99569.94;;;28.35;44.60
81865;BME280;71313;43.514;1.500;2023-07-28T05:09:50;99569.94;;;28.35;44.04
81865;BME280;71313;43.514;1.500;2023-07-28T05:12:15;99573.16;;;28.32;44.22
81865;BME280;71313;43.514;1.500;2023-07-28T05:14:41;99587.56;;;28.34;44.10
81865;BME280;71313;43.514;1.500;2023-07-28T05:17:07;99591.41;;;28.33;44.23
81865;BME280;71313;43.514;1.500;2023-07-28T05:19:32;99589.72;;;28.32;44.56
81865;BME280;71313;43.514;1.500;2023-07-28T05:21:58;99595.84;;;28.34;44.75
81865;BME280;71313;43.514;1.500;2023-07-28T05:24:23;99589.72;;;28.32;44.94
81865;BME280;71313;43.514;1.500;2023-07-28T05:26:49;99589.72;;;28.32;44.30
81865;BME280;71313;43.514;1.500;2023-07-28T05:29:14;99585.50;;;28.29;44.12
81865;BME280;71313;43.514;1.500;2023-07-28T05:31:39;99585.88;;;28.33;44.71
81865;BME280;71313;43.514;1.500;2023-07-28T05:34:05;99583.34;;;28.31;44.24
81865;BME280;71313;43.514;1.500;2023-07-28T05:36:30;99584.66;;;28.29;43.98
81865;BME280;71313;43.514;1.500;2023-07-28T05:38:57;99588.03;;;28.31;44.41
81865;BME280;71313;43.514;1.500;2023-07-28T05:41:23;99604.13;;;28.34;43.83
81865;BME280;71313;43.514;1.500;2023-07-28T05:43:49;99609.66;;;28.34;44.53
81865;BME280;71313;43.514;1.500;2023-07-28T05:46:14;99604.97;;;28.34;44.32
81865;BME280;71313;43.514;1.500;2023-07-28T05:48:40;99598.00;;;28.32;43.94
81865;BME280;71313;43.514;1.500;2023-07-28T05:51:05;99596.94;;;28.33;44.32
81865;BME280;71313;43.514;1.500;2023-07-28T05:53:31;99597.31;;;28.36;44.06
81865;BME280;71313;43.514;1.500;2023-07-28T05:55:56;99594.78;;;28.35;44.38
81865;BME280;71313;43.514;1.500;2023-07-28T05:58:22;99597.53;;;28.35;43.79
81865;BME280;71313;43.514;1.500;2023-07-28T06:00:47;99610.25;;;28.36;43.81
81865;BME280;71313;43.514;1.500;2023-07-28T06:03:13;99613.66;;;28.38;43.78
81865;BME280;71313;43.514;1.500;2023-07-28T06:05:42;99603.69;;;28.37;43.96
81865;BME280;71313;43.514;1.500;2023-07-28T06:08:08;99606.66;;;28.35;44.53
81865;BME280;71313;43.514;1.500;2023-07-28T06:10:34;99614.25;;;28.40;44.03
81865;BME280;71313;43.514;1.500;2023-07-28T06:13:00;99607.06;;;28.39;44.37
81865;BME280;71313;43.514;1.500;2023-07-28T06:15:25;99608.75;;;28.40;44.26
81865;BME280;71313;43.514;1.500;2023-07-28T06:17:50;99615.94;;;28.41;44.33
81865;BME280;71313;43.514;1.500;2023-07-28T06:20:16;99618.47;;;28.42;44.13
81865;BME280;71313;43.514;1.500;2023-07-28T06:22:41;99628.69;;;28.42;44.25
81865;BME280;71313;43.514;1.500;2023-07-28T06:25:07;99628.69;;;28.42;44.02
81865;BME280;71313;43.514;1.500;2023-07-28T06:27:32;99633.34;;;28.41;44.02
81865;BME280;71313;43.514;1.500;2023-07-28T06:29:58;99636.50;;;28.45;43.89
81865;BME280;71313;43.514;1.500;2023-07-28T06:32:23;99633.75;;;28.45;44.12
81865;BME280;71313;43.514;1.500;2023-07-28T06:34:49;99645.63;;;28.46;44.16
81865;BME280;71313;43.514;1.500;2023-07-28T06:37:15;99642.63;;;28.47;43.65
81865;BME280;71313;43.514;1.500;2023-07-28T06:39:41;99649.84;;;28.48;44.29
81865;BME280;71313;43.514;1.500;2023-07-28T06:42:07;99640.94;;;28.46;44.04
81865;BME280;71313;43.514;1.500;2023-07-28T06:44:32;99642.19;;;28.50;44.37
81865;BME280;71313;43.514;1.500;2023-07-28T06:46:58;99646.00;;;28.49;43.94
81865;BME280;71313;43.514;1.500;2023-07-28T06:49:23;99650.69;;;28.49;44.62
81865;BME280;71313;43.514;1.500;2023-07-28T06:51:49;99648.63;;;28.44;44.69
81865;BME280;71313;43.514;1.500;2023-07-28T06:54:14;99658.75;;;28.50;44.28
81865;BME280;71313;43.514;1.500;2023-07-28T06:56:40;99653.22;;;28.50;44.38
81865;BME280;71313;43.514;1.500;2023-07-28T06:59:06;99651.53;;;28.49;44.87
81865;BME280;71313;43.514;1.500;2023-07-28T07:01:32;99652.16;;;28.51;44.18
81865;BME280;71313;43.514;1.500;2023-07-28T07:03:57;99651.31;;;28.51;45.12
81865;BME280;71313;43.514;1.500;2023-07-28T07:06:23;99650.25;;;28.52;44.94
81865;BME280;71313;43.514;1.500;2023-07-28T07:08:48;99646.00;;;28.49;45.64
81865;BME280;71313;43.514;1.500;2023-07-28T07:11:14;99645.25;;;28.42;45.57
81865;BME280;71313;43.514;1.500;2023-07-28T07:13:40;99642.94;;;28.39;46.00
81865;BME280;71313;43.514;1.500;2023-07-28T07:16:13;99650.59;;;28.37;46.44
81865;BME280;71313;43.514;1.500;2023-07-28T07:18:38;99655.31;;;28.30;46.56
81865;BME280;71313;43.514;1.500;2023-07-28T07:21:04;99646.25;;;28.23;46.47
81865;BME280;71313;43.514;1.500;2023-07-28T07:23:31;99643.53;;;28.16;46.63
81865;BME280;71313;43.514;1.500;2023-07-28T07:25:56;99650.97;;;28.16;46.59
81865;BME280;71313;43.514;1.500;2023-07-28T07:28:22;99650.78;;;28.10;46.79
81865;BME280;71313;43.514;1.500;2023-07-28T07:30:47;99664.13;;;28.13;46.61
81865;BME280;71313;43.514;1.500;2023-07-28T07:33:13;99656.09;;;28.12;47.63
81865;BME280;71313;43.514;1.500;2023-07-28T07:35:39;99653.72;;;28.16;47.44
81865;BME280;71313;43.514;1.500;2023-07-28T07:38:05;99661.56;;;28.19;46.84
81865;BME280;71313;43.514;1.500;2023-07-28T07:40:35;99663.25;;;28.20;46.96
81865;BME280;71313;43.514;1.500;2023-07-28T07:43:01;99661.09;;;28.22;47.64
81865;BME280;71313;43.514;1.500;2023-07-28T07:45:28;99657.31;;;28.23;47.96
81865;BME280;71313;43.514;1.500;2023-07-28T07:47:54;99660.69;;;28.25;47.41
81865;BME280;71313;43.514;1.500;2023-07-28T07:50:20;99664.06;;;28.27;47.55
81865;BME280;71313;43.514;1.500;2023-07-28T07:52:47;99669.97;;;28.30;47.61
81865;BME280;71313;43.514;1.500;2023-07-28T07:55:12;99666.13;;;28.31;47.37
81865;BME280;71313;43.514;1.500;2023-07-28T07:57:38;99672.50;;;28.32;47.77
81865;BME280;71313;43.514;1.500;2023-07-28T08:00:04;99672.50;;;28.32;47.89
81865;BME280;71313;43.514;1.500;2023-07-28T08:02:30;99668.69;;;28.33;47.30
81865;BME280;71313;43.514;1.500;2023-07-28T08:04:55;99664.84;;;28.34;47.46
81865;BME280;71313;43.514;1.500;2023-07-28T08:07:21;99666.53;;;28.35;47.51
81865;BME280;71313;43.514;1.500;2023-07-28T08:09:47;99664.84;;;28.34;47.18
81865;BME280;71313;43.514;1.500;2023-07-28T08:12:14;99664.38;;;28.37;47.86
81865;BME280;71313;43.514;1.500;2023-07-28T08:14:40;99655.03;;;28.38;47.69
81865;BME280;71313;43.514;1.500;2023-07-28T08:17:06;99656.13;;;28.37;47.28
81865;BME280;71313;43.514;1.500;2023-07-28T08:19:31;99660.09;;;28.41;47.59
81865;BME280;71313;43.514;1.500;2023-07-28T08:21:57;99654.59;;;28.41;47.45
81865;BME280;71313;43.514;1.500;2023-07-28T08:24:22;99657.97;;;28.43;47.60
81865;BME280;71313;43.514;1.500;2023-07-28T08:26:48;99664.09;;;28.45;47.84
81865;BME280;71313;43.514;1.500;2023-07-28T08:29:14;99666.88;;;28.45;47.74
81865;BME280;71313;43.514;1.500;2023-07-28T08:31:40;99660.09;;;28.41;47.35
81865;BME280;71313;43.514;1.500;2023-07-28T08:34:07;99659.94;;;28.36;47.35
81865;BME280;71313;43.514;1.500;2023-07-28T08:36:33;99658.47;;;28.33;47.99
81865;BME280;71313;43.514;1.500;2023-07-28T08:38:58;99656.78;;;28.32;47.85
81865;BME280;71313;43.514;1.500;2023-07-28T08:41:24;99648.34;;;28.27;47.81
81865;BME280;71313;43.514;1.500;2023-07-28T08:43:50;99649.03;;;28.23;48.01
81865;BME280;71313;43.514;1.500;2023-07-28T08:46:16;99645.63;;;28.21;47.51
81865;BME280;71313;43.514;1.500;2023-07-28T08:48:42;99645.00;;;28.19;47.54
81865;BME280;71313;43.514;1.500;2023-07-28T08:51:09;99647.75;;;28.19;47.30
81865;BME280;71313;43.514;1.500;2023-07-28T08:53:35;99638.00;;;28.16;47.38
81865;BME280;71313;43.514;1.500;2023-07-28T08:56:00;99642.91;;;28.14;47.55
81865;BME280;71313;43.514;1.500;2023-07-28T08:58:26;99647.34;;;28.15;47.91
81865;BME280;71313;43.514;1.500;2023-07-28T09:00:52;99643.13;;;28.12;48.29
81865;BME280;71313;43.514;1.500;2023-07-28T09:03:19;99649.72;;;28.11;47.49
81865;BME280;71313;43.514;1.500;2023-07-28T09:05:45;99651.88;;;28.09;47.67
81865;BME280;71313;43.514;1.500;2023-07-28T09:08:15;99653.56;;;28.10;47.85
81865;BME280;71313;43.514;1.500;2023-07-28T09:10:42;99654.84;;;28.08;48.05
81865;BME280;71313;43.514;1.500;2023-07-28T09:13:12;99656.75;;;28.07;47.60
81865;BME280;71313;43.514;1.500;2023-07-28T09:15:39;99653.59;;;28.04;47.67
81865;BME280;71313;43.514;1.500;2023-07-28T09:18:12;99649.16;;;28.03;47.48
81865;BME280;71313;43.514;1.500;2023-07-28T09:20:40;99658.72;;;28.00;47.98
81865;BME280;71313;43.514;1.500;2023-07-28T09:23:07;99659.78;;;27.99;47.26
81865;BME280;71313;43.514;1.500;2023-07-28T09:25:35;99663.41;;;28.00;47.69
81865;BME280;71313;43.514;1.500;2023-07-28T09:28:02;99660.03;;;27.98;47.88
81865;BME280;71313;43.514;1.500;2023-07-28T09:30:43;99664.06;;;27.95;47.66
81865;BME280;71313;43.514;1.500;2023-07-28T09:33:09;99654.56;;;27.91;47.85
81865;BME280;71313;43.514;1.500;2023-07-28T09:35:47;99664.28;;;27.94;47.47
81865;BME280;71313;43.514;1.500;2023-07-28T09:38:14;99663.28;;;27.88;47.45
81865;BME280;71313;43.514;1.500;2023-07-28T09:40:40;99670.47;;;27.89;47.62
81865;BME280;71313;43.514;1.500;2023-07-28T09:43:05;99668.78;;;27.88;46.98
81865;BME280;71313;43.514;1.500;2023-07-28T09:45:31;99665.81;;;27.90;46.45
81865;BME280;71313;43.514;1.500;2023-07-28T09:47:59;99660.50;;;27.88;46.92
81865;BME280;71313;43.514;1.500;2023-07-28T09:50:31;99652.00;;;27.90;47.50
81865;BME280;71313;43.514;1.500;2023-07-28T09:53:02;99650.09;;;27.90;47.32
81865;BME280;71313;43.514;1.500;2023-07-28T09:55:28;99647.34;;;27.90;47.36
81865;BME280;71313;43.514;1.500;2023-07-28T09:57:55;99657.31;;;27.91;47.15
81865;BME280;71313;43.514;1.500;2023-07-28T10:00:22;99660.50;;;27.88;47.27
81865;BME280;71313;43.514;1.500;2023-07-28T10:02:49;99660.50;;;27.88;46.75
81865;BME280;71313;43.514;1.500;2023-07-28T10:05:15;99657.13;;;27.86;46.91
81865;BME280;71313;43.514;1.500;2023-07-28T10:07:43;99664.34;;;27.87;47.56
81865;BME280;71313;43.514;1.500;2023-07-28T10:10:13;99653.31;;;27.87;47.17
81865;BME280;71313;43.514;1.500;2023-07-28T10:12:46;99657.13;;;27.86;47.55
81865;BME280;71313;43.514;1.500;2023-07-28T10:15:13;99653.75;;;27.84;47.25
81865;BME280;71313;43.514;1.500;2023-07-28T10:17:54;99653.75;;;27.84;46.75
81865;BME280;71313;43.514;1.500;2023-07-28T10:20:33;99655.22;;;27.87;47.28
81865;BME280;71313;43.514;1.500;2023-07-28T10:23:23;99657.13;;;27.86;47.37
81865;BME280;71313;43.514;1.500;2023-07-28T10:25:59;99651.63;;;27.86;47.04
81865;BME280;71313;43.514;1.500;2023-07-28T10:28:28;99653.75;;;27.84;46.81
81865;BME280;71313;43.514;1.500;2023-07-28T10:30:57;99648.91;;;27.79;46.69
81865;BME280;71313;43.514;1.500;2023-07-28T10:33:34;99641.94;;;27.77;47.09
81865;BME280;71313;43.514;1.500;2023-07-28T10:36:14;99642.78;;;27.77;46.97
81865;BME280;71313;43.514;1.500;2023-07-28T10:38:40;99639.16;;;27.77;46.69
81865;BME280;71313;43.514;1.500;2023-07-28T10:43:38;99619.41;;;27.80;47.33
81865;BME280;71313;43.514;1.500;2023-07-28T10:46:05;99623.66;;;27.83;47.25
81865;BME280;71313;43.514;1.500;2023-07-28T10:48:34;99621.91;;;27.88;46.65
81865;BME280;71313;43.514;1.500;2023-07-28T10:51:00;99615.53;;;27.88;47.08
81865;BME280;71313;43.514;1.500;2023-07-28T10:53:25;99609.81;;;27.89;46.67
81865;BME280;71313;43.514;1.500;2023-07-28T10:55:52;99613.41;;;27.90;47.03
81865;BME280;71313;43.514;1.500;2023-07-28T10:58:19;99618.25;;;27.94;46.84
81865;BME280;71313;43.514;1.500;2023-07-28T11:00:45;99608.13;;;27.88;46.47
81865;BME280;71313;43.514;1.500;2023-07-28T11:03:12;99615.94;;;27.91;47.13
81865;BME280;71313;43.514;1.500;2023-07-28T11:05:37;99607.22;;;27.94;46.34
81865;BME280;71313;43.514;1.500;2023-07-28T11:08:03;99600.63;;;27.95;46.59
81865;BME280;71313;43.514;1.500;2023-07-28T11:10:30;99604.63;;;27.99;46.66
81865;BME280;71313;43.514;1.500;2023-07-28T11:12:58;99606.31;;;28.00;46.83
81865;BME280;71313;43.514;1.500;2023-07-28T11:15:24;99604.19;;;28.02;46.99
81865;BME280;71313;43.514;1.500;2023-07-28T11:17:51;99609.03;;;28.07;46.77
81865;BME280;71313;43.514;1.500;2023-07-28T11:20:17;99607.72;;;28.09;46.98
81865;BME280;71313;43.514;1.500;2023-07-28T11:22:44;99607.50;;;28.11;47.22
81865;BME280;71313;43.514;1.500;2023-07-28T11:25:10;99596.47;;;28.11;46.74
81865;BME280;71313;43.514;1.500;2023-07-28T11:27:37;99591.78;;;28.11;46.70
81865;BME280;71313;43.514;1.500;2023-07-28T11:30:03;99592.41;;;28.13;46.38
81865;BME280;71313;43.514;1.500;2023-07-28T11:32:31;99579.22;;;28.16;46.97
81865;BME280;71313;43.514;1.500;2023-07-28T11:35:05;99571.34;;;28.19;46.99
81865;BME280;71313;43.514;1.500;2023-07-28T11:37:33;99582.16;;;28.21;46.81
81865;BME280;71313;43.514;1.500;2023-07-28T11:40:02;99594.88;;;28.22;46.75
81865;BME280;71313;43.514;1.500;2023-07-28T11:42:33;99591.50;;;28.20;46.90
81865;BME280;71313;43.514;1.500;2023-07-28T11:44:59;99590.00;;;28.24;47.05
81865;BME280;71313;43.514;1.500;2023-07-28T11:47:25;99577.91;;;28.25;46.33
81865;BME280;71313;43.514;1.500;2023-07-28T11:49:50;99567.09;;;28.23;46.67
81865;BME280;71313;43.514;1.500;2023-07-28T11:52:17;99573.44;;;28.24;46.56
81865;BME280;71313;43.514;1.500;2023-07-28T11:54:43;99584.66;;;28.29;46.75
81865;BME280;71313;43.514;1.500;2023-07-28T11:57:10;99592.94;;;28.29;46.77
81865;BME280;71313;43.514;1.500;2023-07-28T11:59:35;99586.78;;;28.27;46.68
81865;BME280;71313;43.514;1.500;2023-07-28T12:02:03;99589.09;;;28.30;46.75
81865;BME280;71313;43.514;1.500;2023-07-28T12:04:38;99584.66;;;28.29;46.82
81865;BME280;71313;43.514;1.500;2023-07-28T12:07:08;99586.78;;;28.27;46.50
81865;BME280;71313;43.514;1.500;2023-07-28T12:12:15;99588.88;;;28.31;46.36
81865;BME280;71313;43.514;1.500;2023-07-28T12:14:41;99578.91;;;28.30;46.55
81865;BME280;71313;43.514;1.500;2023-07-28T12:17:17;99586.34;;;28.30;46.70
81865;BME280;71313;43.514;1.500;2023-07-28T12:19:55;99600.28;;;28.35;46.70
81865;BME280;71313;43.514;1.500;2023-07-28T12:22:21;99595.84;;;28.34;46.56
81865;BME280;71313;43.514;1.500;2023-07-28T12:24:47;99585.44;;;28.36;46.37
81865;BME280;71313;43.514;1.500;2023-07-28T12:27:12;99571.84;;;28.34;46.61
81865;BME280;71313;43.514;1.500;2023-07-28T12:29:38;99562.28;;;28.37;46.42
81865;BME280;71313;43.514;1.500;2023-07-28T12:32:04;99545.72;;;28.37;46.74
81865;BME280;71313;43.514;1.500;2023-07-28T12:34:30;99534.44;;;28.38;46.50
81865;BME280;71313;43.514;1.500;2023-07-28T12:36:55;99555.28;;;28.34;46.53
81865;BME280;71313;43.514;1.500;2023-07-28T12:39:21;99596.00;;;28.39;47.22
81865;BME280;71313;43.514;1.500;2023-07-28T12:41:46;99600.47;;;28.40;46.50
81865;BME280;71313;43.514;1.500;2023-07-28T12:44:12;99572.84;;;28.40;46.51
81865;BME280;71313;43.514;1.500;2023-07-28T12:46:37;99558.22;;;28.39;46.27
81865;BME280;71313;43.514;1.500;2023-07-28T12:49:04;99556.91;;;28.42;46.74
81865;BME280;71313;43.514;1.500;2023-07-28T12:51:30;99542.03;;;28.43;46.57
81865;BME280;71313;43.514;1.500;2023-07-28T12:53:55;99529.69;;;28.46;46.03
81865;BME280;71313;43.514;1.500;2023-07-28T12:56:20;99534.38;;;28.45;46.08
81865;BME280;71313;43.514;1.500;2023-07-28T12:58:46;99540.97;;;28.44;46.29
81865;BME280;71313;43.514;1.500;2023-07-28T13:01:11;99556.00;;;28.48;45.96
81865;BME280;71313;43.514;1.500;2023-07-28T13:03:37;99552.63;;;28.46;46.53